Main page
Satellite images 15-day forecastsClimateMarine weather Cyclones Lightning AirportsFAQ Newsletter About
Weather : Europe Africa North America South America Asia Australia-Oceania Others
Languages Contact

Istanbul Atatürk, Turkey

latitude: 40-58N, longitude: 028-49E, elevation: 48 m


METAR: LTBA 220720Z 32007KT 290V350 CAVOK 06/M00 Q1029 NOSIG
TAF: LTBA 220440Z 2206/2312 33009KT CAVOK BECMG 2211/2215 22012KT

Time: 09:44 (07:44 UTC)

Current weather observation

The report was made 24 minutes ago, at 07:20 UTC
Wind 7 kt from the Northwest, varying between West/Northwest and North
Temperature 6°C
Humidity 65%
Pressure 1029 hPa
Visibility 10 km or more
no clouds below 1500 m and no cumulonimbus

Change units

Forecast

The report was made 3 hours and 4 minutes ago, at 04:40 UTC
Forecast valid from 22 at 06 UTC to 23 at 12 UTC
Wind 9 kt from the North/Northwest
Visibility 10 km or more
no clouds below 1500 m and no cumulonimbus
Becoming
from 22 at 11 UTC to 22 at 15 UTC
Wind 12 kt from the Southwest
The information on this site is subject to a disclaimer
Weather : Europe Africa North America South America Asia Australia-Oceania Others
Satellite images 15-day forecastsClimateMarine weather Cyclones Lightning AirportsFAQ Languages Contact Newsletter About